Federalsburg, MD (21632)

12:53 AM EDT on July 07, 2015 (GMT -0400)
Huntington Crossing | | Change Station
CLOSE
Current Station
Personal Weather Station
Location: Hurlock, MD
Elevation: 26 ft
Nearby Weather Stations

Elev 26 ft 38.69 °N, 75.90 °W | Updated 8 minutes ago

Partly Cloudy
Partly Cloudy
72.5 °F
Feels Like 72.5 °F
N
1.6
Wind Variable Wind from NW
Gusts 3.8 mph

Today
High -- | Low -- °F
--% Chance of Precip.
Yesterday
High -- | Low -- °F
Precip. -- in
5:45 AM 8:30 PM
Waning Gibbous, 69% visible
Pressure 30.05 in
Visibility 2.5 miles
Clouds Scattered Clouds 300 ft
Mostly Cloudy 1800 ft
Overcast 2800 ft
Dew Point 71 °F
Humidity 95%
Rainfall 0.00 in
Snow Depth Not available.
UV 0 out of 12
Pollen 2.80 out of 12
Air Quality Not available.
Flu Activity Not available.
METAR KCGE 070430Z AUTO 07004KT 2 1/2SM SCT003 BKN018 OVC028 25/22 A3005 RMK AO1 VIS 3/4V5

More Conditions Fewer Conditions

Pressure 30.05 in
Visibility 2.5 miles
Clouds Scattered Clouds 300 ft
Mostly Cloudy 1800 ft
Overcast 2800 ft
Dew Point 71 °F
Humidity 95%
Rainfall 0.00 in
Snow Depth Not available.
UV 0 out of 12
Pollen 2.80 out of 12
Air Quality Not available.
Flu Activity Not available.
METAR KCGE 070430Z AUTO 07004KT 2 1/2SM SCT003 BKN018 OVC028 25/22 A3005 RMK AO1 VIS 3/4V5

More Conditions Fewer Conditions

Nowcast | as of 11:28 PM EDT on July 6, 2015

Another cluster of showers with heavy downpours will move into the southern portions of the Eastern Shore through 1:00 am. A rumble of thunder can not be ruled out as well.

×

10-Day Weather Forecast

×

Almanac

Astronomy

Jul. 07, 2015 Rise Set
Actual Time
Civil Twilight
Nautical Twilight
Astronomical Twilight
Moon
Length of Visible Light
Length of Day
Tomorrow will be .
, % of the Moon is Illuminated

Today's Extremes

State Highs State Lows

Community

WunderPhotos

Upload Photos

1,835,728 photos uploaded!

WunderBlogs® & News

Nearby

Air Quality

  Air Quality AQ Index Pollutant
Not available.

Snow Depth

Station Depth Elevation

Earthquake Activity

City Distance Mag. Time & Date
Minimum magnitude displayed is 2.5.

Coastal Water Temperatures

Place Temperature

Stations

Nearby Weather Stations

Station Location Temp. Windchill Dew Point Humidity Wind Precip. Elev Updated Type